sensor_id;sensor_type;location;lat;lon;timestamp;pressure;altitude;pressure_sealevel;temperature;humidity
58367;BME280;57745;42.524;12.052;2023-02-22T00:00:09;96741.31;;;14.33;61.53
58367;BME280;57745;42.524;12.052;2023-02-22T00:02:51;96746.81;;;14.21;61.72
58367;BME280;57745;42.524;12.052;2023-02-22T00:05:18;96746.06;;;14.20;61.92
58367;BME280;57745;42.524;12.052;2023-02-22T00:07:49;96739.09;;;14.19;61.83
58367;BME280;57745;42.524;12.052;2023-02-22T00:10:15;96735.00;;;14.24;61.60
58367;BME280;57745;42.524;12.052;2023-02-22T00:12:51;96735.34;;;14.26;61.75
58367;BME280;57745;42.524;12.052;2023-02-22T00:15:20;96728.94;;;14.20;61.67
58367;BME280;57745;42.524;12.052;2023-02-22T00:17:47;96729.56;;;14.24;61.54
58367;BME280;57745;42.524;12.052;2023-02-22T00:20:14;96722.66;;;13.97;62.43
58367;BME280;57745;42.524;12.052;2023-02-22T00:22:43;96722.03;;;14.28;61.74
58367;BME280;57745;42.524;12.052;2023-02-22T00:25:11;96724.03;;;14.15;61.77
58367;BME280;57745;42.524;12.052;2023-02-22T00:27:37;96730.28;;;14.02;62.50
58367;BME280;57745;42.524;12.052;2023-02-22T00:30:06;96725.97;;;13.92;62.51
58367;BME280;57745;42.524;12.052;2023-02-22T00:32:34;96716.81;;;14.21;61.44
58367;BME280;57745;42.524;12.052;2023-02-22T00:34:59;96716.91;;;13.95;62.49
58367;BME280;57745;42.524;12.052;2023-02-22T00:37:25;96716.72;;;14.12;62.03
58367;BME280;57745;42.524;12.052;2023-02-22T00:39:50;96709.47;;;14.09;61.44
58367;BME280;57745;42.524;12.052;2023-02-22T00:42:17;96714.66;;;13.81;62.21
58367;BME280;57745;42.524;12.052;2023-02-22T00:44:43;96710.25;;;13.96;62.02
58367;BME280;57745;42.524;12.052;2023-02-22T00:47:09;96707.56;;;13.84;62.12
58367;BME280;57745;42.524;12.052;2023-02-22T00:49:36;96707.97;;;13.95;61.80
58367;BME280;57745;42.524;12.052;2023-02-22T00:52:02;96699.94;;;14.13;61.09
58367;BME280;57745;42.524;12.052;2023-02-22T00:54:28;96699.91;;;13.91;61.67
58367;BME280;57745;42.524;12.052;2023-02-22T00:56:54;96699.31;;;14.09;61.33
58367;BME280;57745;42.524;12.052;2023-02-22T00:59:20;96705.78;;;13.90;61.69
58367;BME280;57745;42.524;12.052;2023-02-22T01:01:45;96703.56;;;13.97;61.67
58367;BME280;57745;42.524;12.052;2023-02-22T01:04:11;96697.63;;;14.12;61.07
58367;BME280;57745;42.524;12.052;2023-02-22T01:06:36;96692.22;;;13.99;61.42
58367;BME280;57745;42.524;12.052;2023-02-22T01:09:02;96692.78;;;14.07;61.14
58367;BME280;57745;42.524;12.052;2023-02-22T01:11:28;96690.19;;;13.90;61.45
58367;BME280;57745;42.524;12.052;2023-02-22T01:13:54;96692.78;;;13.72;62.39
58367;BME280;57745;42.524;12.052;2023-02-22T01:16:19;96694.97;;;13.99;61.39
58367;BME280;57745;42.524;12.052;2023-02-22T01:18:45;96698.72;;;13.92;61.46
58367;BME280;57745;42.524;12.052;2023-02-22T01:21:10;96694.75;;;13.72;62.04
58367;BME280;57745;42.524;12.052;2023-02-22T01:23:36;96705.28;;;13.82;62.07
58367;BME280;57745;42.524;12.052;2023-02-22T01:26:02;96695.00;;;13.86;61.95
58367;BME280;57745;42.524;12.052;2023-02-22T01:28:33;96693.66;;;13.69;62.27
58367;BME280;57745;42.524;12.052;2023-02-22T01:30:58;96682.06;;;13.78;62.32
58367;BME280;57745;42.524;12.052;2023-02-22T01:33:25;96688.06;;;13.73;62.40
58367;BME280;57745;42.524;12.052;2023-02-22T01:35:51;96683.69;;;13.75;62.38
58367;BME280;57745;42.524;12.052;2023-02-22T01:38:16;96683.63;;;14.00;61.47
58367;BME280;57745;42.524;12.052;2023-02-22T01:40:46;96685.19;;;13.89;62.01
58367;BME280;57745;42.524;12.052;2023-02-22T01:43:26;96688.59;;;13.80;61.68
58367;BME280;57745;42.524;12.052;2023-02-22T01:48:53;96676.88;;;13.92;61.10
58367;BME280;57745;42.524;12.052;2023-02-22T01:51:33;96676.72;;;13.74;61.68
58367;BME280;57745;42.524;12.052;2023-02-22T01:54:21;96673.44;;;13.79;61.94
58367;BME280;57745;42.524;12.052;2023-02-22T01:59:43;96681.19;;;13.81;61.96
58367;BME280;57745;42.524;12.052;2023-02-22T02:02:11;96669.34;;;13.96;61.61
58367;BME280;57745;42.524;12.052;2023-02-22T02:04:38;96672.25;;;13.80;62.07
58367;BME280;57745;42.524;12.052;2023-02-22T02:07:08;96657.38;;;13.94;61.88
58367;BME280;57745;42.524;12.052;2023-02-22T02:09:43;96662.28;;;13.86;62.21
58367;BME280;57745;42.524;12.052;2023-02-22T02:12:13;96660.66;;;13.89;62.08
58367;BME280;57745;42.524;12.052;2023-02-22T02:14:40;96655.09;;;13.92;61.62
58367;BME280;57745;42.524;12.052;2023-02-22T02:17:08;96654.19;;;13.95;61.70
58367;BME280;57745;42.524;12.052;2023-02-22T02:27:19;96653.63;;;14.00;61.08
58367;BME280;57745;42.524;12.052;2023-02-22T02:36:00;96643.78;;;13.81;61.14
58367;BME280;57745;42.524;12.052;2023-02-22T02:41:12;96646.31;;;13.76;61.01
58367;BME280;57745;42.524;12.052;2023-02-22T02:46:31;96647.44;;;13.65;61.49
58367;BME280;57745;42.524;12.052;2023-02-22T02:49:04;96646.19;;;13.79;60.51
58367;BME280;57745;42.524;12.052;2023-02-22T02:51:35;96642.97;;;13.93;60.22
58367;BME280;57745;42.524;12.052;2023-02-22T02:54:03;96637.47;;;13.84;60.54
58367;BME280;57745;42.524;12.052;2023-02-22T02:56:29;96641.13;;;13.90;60.34
58367;BME280;57745;42.524;12.052;2023-02-22T02:58:55;96639.84;;;13.82;60.25
58367;BME280;57745;42.524;12.052;2023-02-22T03:01:46;96636.38;;;13.82;60.54
58367;BME280;57745;42.524;12.052;2023-02-22T03:04:36;96643.78;;;13.81;60.43
58367;BME280;57745;42.524;12.052;2023-02-22T03:07:14;96630.88;;;13.94;59.51
58367;BME280;57745;42.524;12.052;2023-02-22T03:09:58;96633.97;;;13.84;59.71
58367;BME280;57745;42.524;12.052;2023-02-22T03:20:52;96632.22;;;13.77;59.62
58367;BME280;57745;42.524;12.052;2023-02-22T03:23:26;96635.16;;;13.83;58.86
58367;BME280;57745;42.524;12.052;2023-02-22T03:26:13;96642.91;;;13.84;59.04
58367;BME280;57745;42.524;12.052;2023-02-22T03:28:45;96630.72;;;13.98;58.62
58367;BME280;57745;42.524;12.052;2023-02-22T03:31:21;96634.69;;;13.62;59.38
58367;BME280;57745;42.524;12.052;2023-02-22T03:34:04;96632.16;;;13.68;58.82
58367;BME280;57745;42.524;12.052;2023-02-22T03:36:34;96625.03;;;13.83;58.40
58367;BME280;57745;42.524;12.052;2023-02-22T03:39:04;96630.81;;;13.73;58.50
58367;BME280;57745;42.524;12.052;2023-02-22T03:41:34;96624.75;;;13.69;58.74
58367;BME280;57745;42.524;12.052;2023-02-22T03:44:09;96625.59;;;13.78;58.54
58367;BME280;57745;42.524;12.052;2023-02-22T03:46:38;96634.09;;;13.80;58.54
58367;BME280;57745;42.524;12.052;2023-02-22T03:49:11;96635.41;;;13.97;58.14
58367;BME280;57745;42.524;12.052;2023-02-22T03:51:38;96635.72;;;13.78;58.29
58367;BME280;57745;42.524;12.052;2023-02-22T03:54:05;96632.72;;;13.63;58.99
58367;BME280;57745;42.524;12.052;2023-02-22T03:56:46;96636.03;;;13.58;59.06
58367;BME280;57745;42.524;12.052;2023-02-22T03:59:14;96641.22;;;13.65;58.62
58367;BME280;57745;42.524;12.052;2023-02-22T04:01:40;96634.88;;;13.68;58.47
58367;BME280;57745;42.524;12.052;2023-02-22T04:04:05;96641.38;;;13.83;57.92
58367;BME280;57745;42.524;12.052;2023-02-22T04:06:31;96638.44;;;13.78;57.90
58367;BME280;57745;42.524;12.052;2023-02-22T04:08:56;96646.94;;;13.80;57.66
58367;BME280;57745;42.524;12.052;2023-02-22T04:11:22;96639.59;;;13.89;57.16
58367;BME280;57745;42.524;12.052;2023-02-22T04:13:47;96637.69;;;13.77;57.45
58367;BME280;57745;42.524;12.052;2023-02-22T04:16:13;96648.19;;;13.66;58.38
58367;BME280;57745;42.524;12.052;2023-02-22T04:18:38;96635.53;;;13.72;57.85
58367;BME280;57745;42.524;12.052;2023-02-22T04:21:04;96636.88;;;13.89;57.21
58367;BME280;57745;42.524;12.052;2023-02-22T04:23:29;96638.94;;;13.85;57.07
58367;BME280;57745;42.524;12.052;2023-02-22T04:25:55;96640.19;;;13.84;57.23
58367;BME280;57745;42.524;12.052;2023-02-22T04:28:21;96643.63;;;13.63;57.85
58367;BME280;57745;42.524;12.052;2023-02-22T04:30:46;96638.81;;;13.67;57.42
58367;BME280;57745;42.524;12.052;2023-02-22T04:33:12;96639.94;;;13.57;57.92
58367;BME280;57745;42.524;12.052;2023-02-22T04:35:38;96641.25;;;13.52;57.77
58367;BME280;57745;42.524;12.052;2023-02-22T04:38:04;96648.44;;;13.59;57.97
58367;BME280;57745;42.524;12.052;2023-02-22T04:40:30;96643.88;;;13.56;58.20
58367;BME280;57745;42.524;12.052;2023-02-22T04:42:56;96640.22;;;13.72;57.20
58367;BME280;57745;42.524;12.052;2023-02-22T04:45:21;96644.81;;;13.62;57.56
58367;BME280;57745;42.524;12.052;2023-02-22T04:47:47;96648.41;;;13.72;57.64
58367;BME280;57745;42.524;12.052;2023-02-22T04:50:13;96641.94;;;13.78;57.21
58367;BME280;57745;42.524;12.052;2023-02-22T04:52:39;96636.91;;;13.77;57.23
58367;BME280;57745;42.524;12.052;2023-02-22T04:55:05;96642.63;;;13.70;57.66
58367;BME280;57745;42.524;12.052;2023-02-22T04:57:31;96650.03;;;13.69;57.69
58367;BME280;57745;42.524;12.052;2023-02-22T04:59:57;96647.03;;;13.54;57.51
58367;BME280;57745;42.524;12.052;2023-02-22T05:02:22;96646.81;;;13.49;57.75
58367;BME280;57745;42.524;12.052;2023-02-22T05:04:48;96643.47;;;13.45;57.91
58367;BME280;57745;42.524;12.052;2023-02-22T05:07:14;96644.50;;;13.60;57.52
58367;BME280;57745;42.524;12.052;2023-02-22T05:09:40;96634.25;;;13.64;57.24
58367;BME280;57745;42.524;12.052;2023-02-22T05:12:06;96636.38;;;13.82;56.72
58367;BME280;57745;42.524;12.052;2023-02-22T05:14:31;96639.81;;;13.60;57.00
58367;BME280;57745;42.524;12.052;2023-02-22T05:16:57;96638.56;;;13.74;56.38
58367;BME280;57745;42.524;12.052;2023-02-22T05:19:23;96636.63;;;13.62;57.11
58367;BME280;57745;42.524;12.052;2023-02-22T05:21:49;96636.44;;;13.56;57.07
58367;BME280;57745;42.524;12.052;2023-02-22T05:24:14;96639.53;;;13.80;56.40
58367;BME280;57745;42.524;12.052;2023-02-22T05:26:44;96638.81;;;13.67;56.84
58367;BME280;57745;42.524;12.052;2023-02-22T05:29:11;96641.09;;;13.69;56.90
58367;BME280;57745;42.524;12.052;2023-02-22T05:31:36;96635.81;;;13.52;57.56
58367;BME280;57745;42.524;12.052;2023-02-22T05:34:02;96635.69;;;13.56;57.14
58367;BME280;57745;42.524;12.052;2023-02-22T05:36:28;96637.44;;;13.50;57.59
58367;BME280;57745;42.524;12.052;2023-02-22T05:38:54;96639.81;;;13.60;57.35
58367;BME280;57745;42.524;12.052;2023-02-22T05:41:20;96641.97;;;13.65;57.05
58367;BME280;57745;42.524;12.052;2023-02-22T05:43:45;96638.19;;;13.50;57.68
58367;BME280;57745;42.524;12.052;2023-02-22T05:46:13;96638.53;;;13.52;57.68
58367;BME280;57745;42.524;12.052;2023-02-22T05:48:38;96641.66;;;13.63;57.42
58367;BME280;57745;42.524;12.052;2023-02-22T05:51:04;96638.25;;;13.72;57.04
58367;BME280;57745;42.524;12.052;2023-02-22T05:53:29;96640.41;;;13.77;56.56
58367;BME280;57745;42.524;12.052;2023-02-22T05:55:55;96637.19;;;13.70;57.10
58367;BME280;57745;42.524;12.052;2023-02-22T05:58:21;96644.00;;;13.74;56.88
58367;BME280;57745;42.524;12.052;2023-02-22T06:00:46;96643.88;;;13.56;57.61
58367;BME280;57745;42.524;12.052;2023-02-22T06:03:12;96642.75;;;13.66;57.21
58367;BME280;57745;42.524;12.052;2023-02-22T06:05:37;96646.56;;;13.69;57.39
58367;BME280;57745;42.524;12.052;2023-02-22T06:08:04;96644.25;;;13.67;57.36
58367;BME280;57745;42.524;12.052;2023-02-22T06:10:31;96652.03;;;13.56;57.79
58367;BME280;57745;42.524;12.052;2023-02-22T06:12:58;96656.81;;;13.64;57.79
58367;BME280;57745;42.524;12.052;2023-02-22T06:15:24;96646.66;;;13.65;57.75
58367;BME280;57745;42.524;12.052;2023-02-22T06:17:51;96652.78;;;13.69;57.75
58367;BME280;57745;42.524;12.052;2023-02-22T06:20:18;96660.94;;;13.69;57.92
58367;BME280;57745;42.524;12.052;2023-02-22T06:22:48;96659.47;;;13.43;58.20
58367;BME280;57745;42.524;12.052;2023-02-22T06:25:16;96651.75;;;13.76;57.98
58367;BME280;57745;42.524;12.052;2023-02-22T06:27:41;96657.25;;;13.63;58.36
58367;BME280;57745;42.524;12.052;2023-02-22T06:30:08;96664.41;;;13.82;57.67
58367;BME280;57745;42.524;12.052;2023-02-22T06:32:34;96661.84;;;13.53;58.21
58367;BME280;57745;42.524;12.052;2023-02-22T06:34:59;96664.53;;;13.66;58.20
58367;BME280;57745;42.524;12.052;2023-02-22T06:37:24;96673.03;;;13.68;58.21
58367;BME280;57745;42.524;12.052;2023-02-22T06:39:50;96668.81;;;13.54;58.41
58367;BME280;57745;42.524;12.052;2023-02-22T06:42:15;96670.53;;;13.61;58.66
58367;BME280;57745;42.524;12.052;2023-02-22T06:44:41;96662.38;;;13.61;58.69
58367;BME280;57745;42.524;12.052;2023-02-22T06:47:06;96676.25;;;13.54;58.90
58367;BME280;57745;42.524;12.052;2023-02-22T06:49:32;96673.81;;;13.69;58.44
58367;BME280;57745;42.524;12.052;2023-02-22T06:51:57;96675.72;;;13.81;58.20
58367;BME280;57745;42.524;12.052;2023-02-22T06:54:23;96674.31;;;13.76;57.43
58367;BME280;57745;42.524;12.052;2023-02-22T06:56:48;96671.28;;;13.74;58.24
58367;BME280;57745;42.524;12.052;2023-02-22T06:59:14;96670.25;;;13.59;58.58
58367;BME280;57745;42.524;12.052;2023-02-22T07:01:41;96685.97;;;13.42;59.01
58367;BME280;57745;42.524;12.052;2023-02-22T07:04:07;96681.53;;;13.70;58.28
58367;BME280;57745;42.524;12.052;2023-02-22T07:06:32;96688.53;;;13.71;57.88
58367;BME280;57745;42.524;12.052;2023-02-22T07:08:57;96686.25;;;13.70;58.28
58367;BME280;57745;42.524;12.052;2023-02-22T07:11:23;96690.28;;;13.65;58.60
58367;BME280;57745;42.524;12.052;2023-02-22T07:13:48;96691.00;;;13.78;57.98
58367;BME280;57745;42.524;12.052;2023-02-22T07:16:14;96693.31;;;13.67;58.60
58367;BME280;57745;42.524;12.052;2023-02-22T07:18:39;96701.56;;;13.76;58.58
58367;BME280;57745;42.524;12.052;2023-02-22T07:21:05;96687.63;;;13.74;58.61
58367;BME280;57745;42.524;12.052;2023-02-22T07:23:32;96691.03;;;14.00;57.63
58367;BME280;57745;42.524;12.052;2023-02-22T07:26:02;96688.03;;;13.85;58.16
58367;BME280;57745;42.524;12.052;2023-02-22T07:28:29;96696.19;;;13.51;59.43
58367;BME280;57745;42.524;12.052;2023-02-22T07:30:55;96700.09;;;13.50;59.75
58367;BME280;57745;42.524;12.052;2023-02-22T07:33:20;96704.25;;;13.54;59.42
58367;BME280;57745;42.524;12.052;2023-02-22T07:35:48;96702.38;;;13.64;58.97
58367;BME280;57745;42.524;12.052;2023-02-22T07:38:16;96700.31;;;13.68;58.89
58367;BME280;57745;42.524;12.052;2023-02-22T07:40:42;96696.44;;;13.44;59.57
58367;BME280;57745;42.524;12.052;2023-02-22T07:43:17;96698.00;;;13.66;59.34
58367;BME280;57745;42.524;12.052;2023-02-22T07:45:44;96694.22;;;13.51;60.22
58367;BME280;57745;42.524;12.052;2023-02-22T07:48:10;96696.06;;;13.67;59.63
58367;BME280;57745;42.524;12.052;2023-02-22T07:50:39;96695.06;;;13.61;59.61
58367;BME280;57745;42.524;12.052;2023-02-22T07:53:07;96700.09;;;13.62;59.69
58367;BME280;57745;42.524;12.052;2023-02-22T07:55:35;96698.75;;;13.80;58.96
58367;BME280;57745;42.524;12.052;2023-02-22T07:58:03;96697.31;;;13.75;59.64
58367;BME280;57745;42.524;12.052;2023-02-22T08:00:36;96694.59;;;13.75;59.57
58367;BME280;57745;42.524;12.052;2023-02-22T08:03:08;96697.31;;;13.75;59.14
58367;BME280;57745;42.524;12.052;2023-02-22T08:05:35;96696.84;;;13.89;58.64
58367;BME280;57745;42.524;12.052;2023-02-22T08:08:01;96692.09;;;13.81;58.67
58367;BME280;57745;42.524;12.052;2023-02-22T08:10:27;96695.00;;;13.86;58.19
58367;BME280;57745;42.524;12.052;2023-02-22T08:12:54;96691.25;;;13.71;58.53
58367;BME280;57745;42.524;12.052;2023-02-22T08:15:24;96692.00;;;13.72;58.44
58367;BME280;57745;42.524;12.052;2023-02-22T08:17:50;96693.75;;;14.00;57.82
58367;BME280;57745;42.524;12.052;2023-02-22T08:20:16;96691.19;;;13.96;57.83
58367;BME280;57745;42.524;12.052;2023-02-22T08:22:42;96690.28;;;13.99;57.60
58367;BME280;57745;42.524;12.052;2023-02-22T08:25:08;96690.59;;;14.01;57.87
58367;BME280;57745;42.524;12.052;2023-02-22T08:27:34;96682.75;;;14.03;57.60
58367;BME280;57745;42.524;12.052;2023-02-22T08:29:59;96698.44;;;13.99;57.53
58367;BME280;57745;42.524;12.052;2023-02-22T08:32:25;96685.06;;;13.92;57.22
58367;BME280;57745;42.524;12.052;2023-02-22T08:34:50;96689.31;;;13.93;57.88
58367;BME280;57745;42.524;12.052;2023-02-22T08:37:17;96683.28;;;13.98;57.82
58367;BME280;57745;42.524;12.052;2023-02-22T08:39:43;96683.19;;;14.02;57.35
58367;BME280;57745;42.524;12.052;2023-02-22T08:42:09;96681.16;;;13.93;57.84
58367;BME280;57745;42.524;12.052;2023-02-22T08:44:35;96676.63;;;13.99;57.82
58367;BME280;57745;42.524;12.052;2023-02-22T08:47:01;96674.00;;;14.09;57.39
58367;BME280;57745;42.524;12.052;2023-02-22T08:49:27;96678.09;;;13.91;57.86
58367;BME280;57745;42.524;12.052;2023-02-22T08:51:52;96673.63;;;13.85;57.15
58367;BME280;57745;42.524;12.052;2023-02-22T08:54:18;96680.00;;;14.03;56.47
58367;BME280;57745;42.524;12.052;2023-02-22T08:56:43;96665.78;;;13.87;57.28
58367;BME280;57745;42.524;12.052;2023-02-22T08:59:09;96665.44;;;13.85;56.75
58367;BME280;57745;42.524;12.052;2023-02-22T09:01:35;96667.31;;;14.10;56.32
58367;BME280;57745;42.524;12.052;2023-02-22T09:04:00;96667.84;;;14.17;56.17
58367;BME280;57745;42.524;12.052;2023-02-22T09:06:27;96670.44;;;14.21;56.17
58367;BME280;57745;42.524;12.052;2023-02-22T09:08:52;96666.50;;;14.22;55.74
58367;BME280;57745;42.524;12.052;2023-02-22T09:11:18;96675.91;;;14.21;55.76
58367;BME280;57745;42.524;12.052;2023-02-22T09:13:43;96667.41;;;14.19;56.29
58367;BME280;57745;42.524;12.052;2023-02-22T09:16:09;96670.75;;;14.23;56.13
58367;BME280;57745;42.524;12.052;2023-02-22T09:18:34;96664.78;;;14.37;56.01
58367;BME280;57745;42.524;12.052;2023-02-22T09:21:01;96675.94;;;14.43;56.47
58367;BME280;57745;42.524;12.052;2023-02-22T09:23:27;96664.41;;;14.26;56.23
58367;BME280;57745;42.524;12.052;2023-02-22T09:25:52;96664.09;;;14.24;56.20
58367;BME280;57745;42.524;12.052;2023-02-22T09:28:18;96665.00;;;14.21;56.27
58367;BME280;57745;42.524;12.052;2023-02-22T09:30:43;96660.81;;;14.29;56.10
58367;BME280;57745;42.524;12.052;2023-02-22T09:33:14;96655.34;;;14.29;56.75
58367;BME280;57745;42.524;12.052;2023-02-22T09:35:42;96654.38;;;14.23;56.46
58367;BME280;57745;42.524;12.052;2023-02-22T09:38:12;96653.63;;;14.22;56.94
58367;BME280;57745;42.524;12.052;2023-02-22T09:46:26;96649.19;;;14.16;56.43
58367;BME280;57745;42.524;12.052;2023-02-22T09:49:17;96643.03;;;14.24;56.60
58367;BME280;57745;42.524;12.052;2023-02-22T09:51:57;96648.88;;;14.14;57.19
58367;BME280;57745;42.524;12.052;2023-02-22T09:56:57;96632.13;;;14.02;56.43
58367;BME280;57745;42.524;12.052;2023-02-22T09:59:28;96642.78;;;14.10;56.96
58367;BME280;57745;42.524;12.052;2023-02-22T10:07:32;96644.72;;;14.44;56.54
58367;BME280;57745;42.524;12.052;2023-02-22T10:10:01;96642.78;;;14.53;56.13
58367;BME280;57745;42.524;12.052;2023-02-22T10:16:08;96644.31;;;14.32;57.07
58367;BME280;57745;42.524;12.052;2023-02-22T10:21:35;96640.06;;;14.53;56.28
58367;BME280;57745;42.524;12.052;2023-02-22T10:27:05;96627.94;;;14.54;56.14
58367;BME280;57745;42.524;12.052;2023-02-22T10:29:39;96631.34;;;14.67;55.44
58367;BME280;57745;42.524;12.052;2023-02-22T10:32:28;96625.78;;;14.49;56.03
58367;BME280;57745;42.524;12.052;2023-02-22T10:34:57;96623.47;;;14.69;55.52
58367;BME280;57745;42.524;12.052;2023-02-22T10:37:28;96627.81;;;14.58;55.89
58367;BME280;57745;42.524;12.052;2023-02-22T10:40:19;96622.81;;;14.65;55.70
58367;BME280;57745;42.524;12.052;2023-02-22T10:42:44;96625.88;;;14.67;55.66
58367;BME280;57745;42.524;12.052;2023-02-22T10:47:49;96612.25;;;14.77;55.10
58367;BME280;57745;42.524;12.052;2023-02-22T10:50:15;96611.94;;;14.74;55.34
58367;BME280;57745;42.524;12.052;2023-02-22T10:52:40;96602.72;;;14.81;55.16
58367;BME280;57745;42.524;12.052;2023-02-22T10:55:12;96604.25;;;14.51;56.02
58367;BME280;57745;42.524;12.052;2023-02-22T10:57:39;96600.09;;;14.68;55.78
58367;BME280;57745;42.524;12.052;2023-02-22T11:00:23;96597.41;;;14.78;55.27
58367;BME280;57745;42.524;12.052;2023-02-22T11:03:15;96603.28;;;14.67;55.67
58367;BME280;57745;42.524;12.052;2023-02-22T11:05:42;96587.09;;;14.82;55.44
58367;BME280;57745;42.524;12.052;2023-02-22T11:08:28;96587.06;;;14.72;55.49
58367;BME280;57745;42.524;12.052;2023-02-22T11:11:19;96584.19;;;14.76;55.54
58367;BME280;57745;42.524;12.052;2023-02-22T11:13:52;96576.13;;;14.72;55.27
58367;BME280;57745;42.524;12.052;2023-02-22T11:21:34;96580.31;;;14.55;55.29
58367;BME280;57745;42.524;12.052;2023-02-22T11:24:09;96583.41;;;14.66;55.10
58367;BME280;57745;42.524;12.052;2023-02-22T11:26:48;96578.41;;;14.74;54.77
58367;BME280;57745;42.524;12.052;2023-02-22T11:29:33;96570.66;;;14.63;55.43
58367;BME280;57745;42.524;12.052;2023-02-22T11:32:03;96581.59;;;14.72;55.37
58367;BME280;57745;42.524;12.052;2023-02-22T11:34:38;96573.28;;;14.76;55.40
58367;BME280;57745;42.524;12.052;2023-02-22T11:39:47;96560.69;;;14.79;55.45
58367;BME280;57745;42.524;12.052;2023-02-22T11:42:24;96557.03;;;14.72;55.54
58367;BME280;57745;42.524;12.052;2023-02-22T11:47:58;96553.41;;;14.85;54.73
58367;BME280;57745;42.524;12.052;2023-02-22T11:50:32;96548.50;;;14.61;54.46
58367;BME280;57745;42.524;12.052;2023-02-22T11:58:42;96543.41;;;14.82;54.28
58367;BME280;57745;42.524;12.052;2023-02-22T12:14:43;96544.59;;;14.71;55.17
58367;BME280;57745;42.524;12.052;2023-02-22T12:19:54;96532.63;;;14.69;55.10
58367;BME280;57745;42.524;12.052;2023-02-22T12:22:31;96531.28;;;14.83;54.74
58367;BME280;57745;42.524;12.052;2023-02-22T12:25:20;96521.84;;;14.74;55.22
58367;BME280;57745;42.524;12.052;2023-02-22T12:27:52;96525.66;;;14.77;54.50
58367;BME280;57745;42.524;12.052;2023-02-22T12:30:25;96523.63;;;14.59;54.93
58367;BME280;57745;42.524;12.052;2023-02-22T12:32:56;96516.25;;;14.78;54.48
58367;BME280;57745;42.524;12.052;2023-02-22T12:35:27;96516.84;;;14.73;54.38
58367;BME280;57745;42.524;12.052;2023-02-22T12:38:25;96515.78;;;14.70;54.50
58367;BME280;57745;42.524;12.052;2023-02-22T12:43:38;96515.31;;;14.72;54.18
58367;BME280;57745;42.524;12.052;2023-02-22T12:46:38;96511.38;;;14.73;53.20
58367;BME280;57745;42.524;12.052;2023-02-22T12:49:25;96509.16;;;14.90;53.18
58367;BME280;57745;42.524;12.052;2023-02-22T12:52:03;96511.88;;;14.81;53.72
58367;BME280;57745;42.524;12.052;2023-02-22T12:57:33;96504.31;;;14.94;52.50
58367;BME280;57745;42.524;12.052;2023-02-22T13:05:18;96497.16;;;14.96;52.66
58367;BME280;57745;42.524;12.052;2023-02-22T13:08:00;96499.31;;;14.92;52.41
58367;BME280;57745;42.524;12.052;2023-02-22T13:10:37;96494.47;;;15.05;52.39
58367;BME280;57745;42.524;12.052;2023-02-22T13:13:19;96492.63;;;14.93;52.58
58367;BME280;57745;42.524;12.052;2023-02-22T13:18:52;96499.88;;;14.78;53.12
58367;BME280;57745;42.524;12.052;2023-02-22T13:21:39;96503.69;;;14.81;53.05
58367;BME280;57745;42.524;12.052;2023-02-22T13:24:15;96504.00;;;14.83;54.01
58367;BME280;57745;42.524;12.052;2023-02-22T13:26:47;96503.09;;;14.95;53.45
58367;BME280;57745;42.524;12.052;2023-02-22T13:29:29;96499.13;;;14.87;54.68
58367;BME280;57745;42.524;12.052;2023-02-22T13:34:58;96499.47;;;15.07;54.16
58367;BME280;57745;42.524;12.052;2023-02-22T13:56:34;96493.25;;;15.61;53.28
58367;BME280;57745;42.524;12.052;2023-02-22T13:59:02;96490.53;;;15.61;53.23
58367;BME280;57745;42.524;12.052;2023-02-22T14:01:46;96483.41;;;15.55;53.64
58367;BME280;57745;42.524;12.052;2023-02-22T14:09:52;96489.56;;;15.82;52.83
58367;BME280;57745;42.524;12.052;2023-02-22T14:15:14;96487.78;;;15.61;53.15
58367;BME280;57745;42.524;12.052;2023-02-22T14:17:45;96482.94;;;15.29;53.43
58367;BME280;57745;42.524;12.052;2023-02-22T14:22:39;96486.72;;;15.77;52.75
58367;BME280;57745;42.524;12.052;2023-02-22T14:25:41;96491.75;;;15.69;52.83
58367;BME280;57745;42.524;12.052;2023-02-22T14:28:31;96484.97;;;15.98;52.14
58367;BME280;57745;42.524;12.052;2023-02-22T14:31:05;96485.03;;;15.70;52.96
58367;BME280;57745;42.524;12.052;2023-02-22T14:36:37;96488.88;;;15.55;53.36
58367;BME280;57745;42.524;12.052;2023-02-22T14:50:20;96490.94;;;15.87;52.70
58367;BME280;57745;42.524;12.052;2023-02-22T14:52:58;96483.34;;;15.91;52.76
58367;BME280;57745;42.524;12.052;2023-02-22T14:55:29;96482.13;;;15.83;52.83
58367;BME280;57745;42.524;12.052;2023-02-22T14:58:06;96479.72;;;15.76;52.34
58367;BME280;57745;42.524;12.052;2023-02-22T15:00:41;96490.06;;;15.81;52.56
58367;BME280;57745;42.524;12.052;2023-02-22T15:05:48;96491.34;;;16.04;52.30
58367;BME280;57745;42.524;12.052;2023-02-22T15:08:17;96487.13;;;15.94;52.66
58367;BME280;57745;42.524;12.052;2023-02-22T15:10:47;96491.22;;;15.98;52.38
58367;BME280;57745;42.524;12.052;2023-02-22T15:15:47;96482.38;;;16.03;52.24
58367;BME280;57745;42.524;12.052;2023-02-22T15:18:39;96477.41;;;15.93;52.45
58367;BME280;57745;42.524;12.052;2023-02-22T15:21:09;96473.47;;;15.94;52.54
58367;BME280;57745;42.524;12.052;2023-02-22T15:24:02;96483.31;;;16.00;52.58
58367;BME280;57745;42.524;12.052;2023-02-22T15:26:32;96487.59;;;15.92;52.75
58367;BME280;57745;42.524;12.052;2023-02-22T15:29:07;96478.78;;;15.88;52.25
58367;BME280;57745;42.524;12.052;2023-02-22T15:31:36;96488.66;;;15.95;52.60
58367;BME280;57745;42.524;12.052;2023-02-22T15:36:47;96476.22;;;15.75;53.18
58367;BME280;57745;42.524;12.052;2023-02-22T15:39:22;96477.88;;;15.91;52.73
58367;BME280;57745;42.524;12.052;2023-02-22T15:42:12;96480.31;;;15.89;52.94
58367;BME280;57745;42.524;12.052;2023-02-22T15:44:53;96488.38;;;15.74;53.13